Time,TemperatureF,DewpointF,PressureIn,WindDirection,WindDirectionDegrees,WindSpeedMPH,WindSpeedGustMPH,Humidity,HourlyPrecipIn,Conditions,Clouds,dailyrainin,SoftwareType,DateUTC
2013-08-13 00:01:00,82.7,77.7,30.06,East,88,0.0,0.0,85,0.00,,,0.00,Wunderground v.1.15,2013-08-13 04:01:00,
2013-08-13 00:02:00,82.7,77.7,30.06,ENE,75,1.0,1.0,85,0.00,,,0.00,Wunderground v.1.15,2013-08-13 04:02:00,
2013-08-13 00:03:00,82.6,77.6,30.06,East,92,1.0,1.0,85,0.00,,,0.00,Wunderground v.1.15,2013-08-13 04:03:00,
2013-08-13 00:04:00,82.6,77.6,30.06,ESE,104,0.0,1.0,85,0.00,,,0.00,Wunderground v.1.15,2013-08-13 04:04:00,
2013-08-13 00:05:00,82.5,77.5,30.06,ESE,105,0.0,1.0,85,0.00,,,0.00,Wunderground v.1.15,2013-08-13 04:05:00,
2013-08-13 00:11:00,82.2,77.6,30.06,ESE,118,0.0,0.0,86,0.00,,,0.00,Wunderground v.1.15,2013-08-13 04:11:00,
2013-08-13 00:17:00,81.9,77.6,30.06,ESE,119,0.0,0.0,87,0.00,,,0.00,Wunderground v.1.15,2013-08-13 04:17:00,
2013-08-13 00:23:00,81.6,77.7,30.06,ESE,103,0.0,0.0,88,0.00,,,0.00,Wunderground v.1.15,2013-08-13 04:23:00,
2013-08-13 00:29:00,81.5,77.6,30.06,East,100,0.0,0.0,88,0.00,,,0.00,Wunderground v.1.15,2013-08-13 04:29:00,
2013-08-13 00:35:00,81.3,77.4,30.06,East,100,0.0,0.0,88,0.00,,,0.00,Wunderground v.1.15,2013-08-13 04:35:00,
2013-08-13 00:41:00,81.3,77.7,30.06,East,79,0.0,0.0,89,0.00,,,0.00,Wunderground v.1.15,2013-08-13 04:41:00,
2013-08-13 00:47:00,81.3,77.7,30.06,East,101,0.0,0.0,89,0.00,,,0.00,Wunderground v.1.15,2013-08-13 04:47:00,
2013-08-13 00:52:00,81.2,77.6,30.06,East,101,0.0,0.0,89,0.00,,,0.00,Wunderground v.1.15,2013-08-13 04:52:00,
2013-08-13 00:58:00,81.1,77.5,30.06,East,101,0.0,0.0,89,0.00,,,0.00,Wunderground v.1.15,2013-08-13 04:58:00,
2013-08-13 01:04:00,81.0,77.4,30.06,East,87,0.0,0.0,89,0.00,,,0.00,Wunderground v.1.15,2013-08-13 05:04:00,
2013-08-13 01:09:00,81.0,77.4,30.05,East,93,0.0,1.0,89,0.00,,,0.00,Wunderground v.1.15,2013-08-13 05:09:00,
2013-08-13 01:15:00,81.1,77.2,30.05,East,101,0.0,2.0,88,0.00,,,0.00,Wunderground v.1.15,2013-08-13 05:15:00,
2013-08-13 01:21:00,81.3,77.1,30.05,ESE,108,0.0,0.0,87,0.00,,,0.00,Wunderground v.1.15,2013-08-13 05:21:00,
2013-08-13 01:26:00,81.2,77.0,30.05,East,99,0.0,0.0,87,0.00,,,0.00,Wunderground v.1.15,2013-08-13 05:26:00,
2013-08-13 01:32:00,81.1,76.5,30.05,ENE,75,2.0,2.0,86,0.00,,,0.00,Wunderground v.1.15,2013-08-13 05:32:00,
2013-08-13 01:38:00,81.3,76.7,30.05,East,93,0.0,2.0,86,0.00,,,0.00,Wunderground v.1.15,2013-08-13 05:38:00,
2013-08-13 01:43:00,81.3,76.4,30.05,East,86,0.0,0.0,85,0.00,,,0.00,Wunderground v.1.15,2013-08-13 05:43:00,
2013-08-13 01:49:00,81.2,76.6,30.04,East,101,0.0,1.0,86,0.00,,,0.00,Wunderground v.1.15,2013-08-13 05:49:00,
2013-08-13 01:54:00,81.1,76.5,30.04,ESE,104,0.0,0.0,86,0.00,,,0.00,Wunderground v.1.15,2013-08-13 05:54:00,
2013-08-13 02:00:00,81.0,76.4,30.04,East,94,0.0,0.0,86,0.00,,,0.00,Wunderground v.1.15,2013-08-13 06:00:00,
2013-08-13 02:05:00,81.0,76.4,30.04,East,95,0.0,0.0,86,0.00,,,0.00,Wunderground v.1.15,2013-08-13 06:05:00,
2013-08-13 02:10:00,80.8,76.2,30.04,East,94,0.0,0.0,86,0.00,,,0.00,Wunderground v.1.15,2013-08-13 06:10:00,
2013-08-13 02:15:00,80.8,76.2,30.04,NE,37,0.0,1.0,86,0.00,,,0.00,Wunderground v.1.15,2013-08-13 06:15:00,
2013-08-13 02:20:00,80.7,76.1,30.04,NE,39,0.0,0.0,86,0.00,,,0.00,Wunderground v.1.15,2013-08-13 06:20:00,
2013-08-13 02:25:00,80.6,76.0,30.04,ENE,72,0.0,0.0,86,0.00,,,0.00,Wunderground v.1.15,2013-08-13 06:25:00,
2013-08-13 02:30:00,80.6,76.0,30.04,ENE,72,0.0,0.0,86,0.00,,,0.00,Wunderground v.1.15,2013-08-13 06:30:00,
2013-08-13 02:35:00,80.6,76.0,30.03,ENE,72,0.0,0.0,86,0.00,,,0.00,Wunderground v.1.15,2013-08-13 06:35:00,
2013-08-13 02:40:00,80.5,75.9,30.03,ENE,72,0.0,0.0,86,0.00,,,0.00,Wunderground v.1.15,2013-08-13 06:40:00,
2013-08-13 02:45:00,80.6,76.0,30.03,ESE,106,0.0,1.0,86,0.00,,,0.00,Wunderground v.1.15,2013-08-13 06:45:00,
2013-08-13 02:50:00,80.6,76.0,30.03,ESE,106,0.0,0.0,86,0.00,,,0.00,Wunderground v.1.15,2013-08-13 06:50:00,
2013-08-13 02:55:00,80.6,76.0,30.03,ESE,106,0.0,0.0,86,0.00,,,0.00,Wunderground v.1.15,2013-08-13 06:55:00,
2013-08-13 03:00:00,80.6,76.0,30.03,ESE,108,0.0,0.0,86,0.00,,,0.00,Wunderground v.1.15,2013-08-13 07:00:00,
2013-08-13 03:05:00,80.7,76.1,30.03,East,100,2.0,2.0,86,0.00,,,0.00,Wunderground v.1.15,2013-08-13 07:05:00,
2013-08-13 03:10:00,80.9,76.3,30.03,East,82,0.0,1.0,86,0.00,,,0.00,Wunderground v.1.15,2013-08-13 07:10:00,
2013-08-13 03:15:00,80.9,76.3,30.03,East,88,0.0,1.0,86,0.00,,,0.00,Wunderground v.1.15,2013-08-13 07:15:00,
2013-08-13 03:20:00,81.0,76.4,30.03,East,89,0.0,0.0,86,0.00,,,0.00,Wunderground v.1.15,2013-08-13 07:20:00,
2013-08-13 03:25:00,81.0,76.4,30.03,East,89,0.0,0.0,86,0.00,,,0.00,Wunderground v.1.15,2013-08-13 07:25:00,
2013-08-13 03:30:00,80.9,76.3,30.03,East,101,0.0,0.0,86,0.00,,,0.00,Wunderground v.1.15,2013-08-13 07:30:00,
2013-08-13 03:35:00,80.6,76.0,30.03,East,89,0.0,2.0,86,0.00,,,0.00,Wunderground v.1.15,2013-08-13 07:35:00,
2013-08-13 03:40:00,80.3,75.7,30.03,East,89,0.0,0.0,86,0.00,,,0.00,Wunderground v.1.15,2013-08-13 07:40:00,
2013-08-13 03:45:00,80.0,75.4,30.02,East,89,0.0,1.0,86,0.00,,,0.00,Wunderground v.1.15,2013-08-13 07:45:00,
2013-08-13 03:50:00,79.7,75.5,30.02,East,89,0.0,0.0,87,0.00,,,0.00,Wunderground v.1.15,2013-08-13 07:50:00,
2013-08-13 03:55:00,79.4,75.2,30.02,East,89,0.0,0.0,87,0.00,,,0.00,Wunderground v.1.15,2013-08-13 07:55:00,
2013-08-13 04:00:00,79.2,75.3,30.02,East,89,0.0,0.0,88,0.00,,,0.00,Wunderground v.1.15,2013-08-13 08:00:00,
2013-08-13 04:05:00,79.1,75.2,30.02,East,89,0.0,0.0,88,0.00,,,0.00,Wunderground v.1.15,2013-08-13 08:05:00,
2013-08-13 04:10:00,79.0,75.1,30.02,East,89,0.0,0.0,88,0.00,,,0.00,Wunderground v.1.15,2013-08-13 08:10:00,
2013-08-13 04:15:00,78.8,75.3,30.02,East,89,0.0,0.0,89,0.00,,,0.00,Wunderground v.1.15,2013-08-13 08:15:00,
2013-08-13 04:20:00,78.8,75.3,30.02,East,89,0.0,0.0,89,0.00,,,0.00,Wunderground v.1.15,2013-08-13 08:20:00,
2013-08-13 04:25:00,78.8,75.6,30.02,East,89,0.0,0.0,90,0.00,,,0.00,Wunderground v.1.15,2013-08-13 08:25:00,
2013-08-13 04:30:00,78.8,75.6,30.02,East,89,0.0,0.0,90,0.00,,,0.00,Wunderground v.1.15,2013-08-13 08:30:00,
2013-08-13 04:36:00,79.1,76.2,30.02,ESE,105,0.0,0.0,91,0.00,,,0.00,Wunderground v.1.15,2013-08-13 08:36:00,
2013-08-13 04:41:00,79.4,76.5,30.02,ESE,104,0.0,0.0,91,0.00,,,0.00,Wunderground v.1.15,2013-08-13 08:41:00,
2013-08-13 04:46:00,79.5,76.6,30.02,ESE,104,0.0,0.0,91,0.00,,,0.00,Wunderground v.1.15,2013-08-13 08:46:00,
2013-08-13 04:51:00,79.6,76.7,30.02,ESE,104,0.0,0.0,91,0.00,,,0.00,Wunderground v.1.15,2013-08-13 08:51:00,
2013-08-13 04:56:00,79.7,77.2,30.02,ESE,103,0.0,1.0,92,0.00,,,0.00,Wunderground v.1.15,2013-08-13 08:56:00,
2013-08-13 05:01:00,79.6,77.1,30.02,ESE,103,0.0,0.0,92,0.00,,,0.00,Wunderground v.1.15,2013-08-13 09:01:00,
2013-08-13 05:06:00,79.6,77.1,30.02,ESE,103,0.0,0.0,92,0.00,,,0.00,Wunderground v.1.15,2013-08-13 09:06:00,
2013-08-13 05:11:00,79.6,77.1,30.02,ESE,103,0.0,0.0,92,0.00,,,0.00,Wunderground v.1.15,2013-08-13 09:11:00,
2013-08-13 05:16:00,79.5,77.0,30.03,ESE,103,0.0,0.0,92,0.00,,,0.00,Wunderground v.1.15,2013-08-13 09:16:00,
2013-08-13 05:21:00,79.4,76.9,30.03,ESE,103,0.0,0.0,92,0.00,,,0.00,Wunderground v.1.15,2013-08-13 09:21:00,
2013-08-13 05:26:00,79.3,76.8,30.03,ESE,103,0.0,0.0,92,0.00,,,0.00,Wunderground v.1.15,2013-08-13 09:26:00,
2013-08-13 05:31:00,79.3,77.1,30.03,ESE,103,0.0,0.0,93,0.00,,,0.00,Wunderground v.1.15,2013-08-13 09:31:00,
2013-08-13 05:36:00,79.2,77.0,30.03,ESE,103,0.0,0.0,93,0.00,,,0.00,Wunderground v.1.15,2013-08-13 09:36:00,
2013-08-13 05:41:00,79.1,76.9,30.03,ESE,103,0.0,0.0,93,0.00,,,0.00,Wunderground v.1.15,2013-08-13 09:41:00,
2013-08-13 05:46:00,79.0,76.8,30.03,ESE,105,0.0,0.0,93,0.00,,,0.00,Wunderground v.1.15,2013-08-13 09:46:00,
2013-08-13 05:51:00,79.0,76.8,30.03,East,101,0.0,0.0,93,0.00,,,0.00,Wunderground v.1.15,2013-08-13 09:51:00,
2013-08-13 05:57:00,79.0,76.8,30.03,East,100,0.0,0.0,93,0.00,,,0.00,Wunderground v.1.15,2013-08-13 09:57:00,
2013-08-13 06:02:00,78.9,76.7,30.03,East,100,0.0,0.0,93,0.00,,,0.00,Wunderground v.1.15,2013-08-13 10:02:00,
2013-08-13 06:07:00,78.9,77.0,30.03,East,101,0.0,0.0,94,0.00,,,0.00,Wunderground v.1.15,2013-08-13 10:07:00,
2013-08-13 06:12:00,78.8,76.9,30.03,East,101,0.0,0.0,94,0.00,,,0.00,Wunderground v.1.15,2013-08-13 10:12:00,
2013-08-13 06:17:00,78.7,76.8,30.03,East,100,0.0,0.0,94,0.00,,,0.00,Wunderground v.1.15,2013-08-13 10:17:00,
2013-08-13 06:22:00,78.8,76.9,30.03,East,101,0.0,0.0,94,0.00,,,0.00,Wunderground v.1.15,2013-08-13 10:22:00,
2013-08-13 06:27:00,78.9,77.0,30.03,East,101,0.0,0.0,94,0.00,,,0.00,Wunderground v.1.15,2013-08-13 10:27:00,
2013-08-13 06:32:00,78.8,76.9,30.03,East,101,0.0,0.0,94,0.00,,,0.00,Wunderground v.1.15,2013-08-13 10:32:00,
2013-08-13 06:37:00,78.8,76.9,30.03,East,100,0.0,0.0,94,0.00,,,0.00,Wunderground v.1.15,2013-08-13 10:37:00,
2013-08-13 06:42:00,78.7,76.8,30.03,East,100,0.0,0.0,94,0.00,,,0.00,Wunderground v.1.15,2013-08-13 10:42:00,
2013-08-13 06:47:00,78.7,76.8,30.03,East,101,0.0,0.0,94,0.00,,,0.00,Wunderground v.1.15,2013-08-13 10:47:00,
2013-08-13 06:52:00,78.6,76.7,30.03,East,100,0.0,0.0,94,0.00,,,0.00,Wunderground v.1.15,2013-08-13 10:52:00,
2013-08-13 06:57:00,78.6,76.7,30.03,East,101,0.0,0.0,94,0.00,,,0.00,Wunderground v.1.15,2013-08-13 10:57:00,
2013-08-13 07:02:00,78.7,76.8,30.03,East,101,0.0,0.0,94,0.00,,,0.00,Wunderground v.1.15,2013-08-13 11:02:00,
2013-08-13 07:07:00,78.7,76.8,30.03,East,101,0.0,0.0,94,0.00,,,0.00,Wunderground v.1.15,2013-08-13 11:07:00,
2013-08-13 07:12:00,78.7,76.8,30.03,East,100,0.0,0.0,94,0.00,,,0.00,Wunderground v.1.15,2013-08-13 11:12:00,
2013-08-13 07:17:00,78.8,76.9,30.03,East,101,0.0,0.0,94,0.00,,,0.00,Wunderground v.1.15,2013-08-13 11:17:00,
2013-08-13 07:22:00,79.4,77.8,30.03,East,101,0.0,0.0,95,0.00,,,0.00,Wunderground v.1.15,2013-08-13 11:22:00,
2013-08-13 07:27:00,80.2,78.6,30.03,East,100,0.0,0.0,95,0.00,,,0.00,Wunderground v.1.15,2013-08-13 11:27:00,
2013-08-13 07:32:00,80.2,78.3,30.04,East,101,0.0,0.0,94,0.00,,,0.00,Wunderground v.1.15,2013-08-13 11:32:00,
2013-08-13 07:37:00,80.1,77.9,30.03,East,101,0.0,0.0,93,0.00,,,0.00,Wunderground v.1.15,2013-08-13 11:37:00,
2013-08-13 07:42:00,80.2,78.0,30.04,East,101,0.0,0.0,93,0.00,,,0.00,Wunderground v.1.15,2013-08-13 11:42:00,
2013-08-13 07:43:00,80.2,78.0,30.03,East,101,0.0,0.0,93,0.00,,,0.00,Wunderground v.1.15,2013-08-13 11:43:00,
2013-08-13 07:48:00,80.4,78.2,30.04,East,101,0.0,0.0,93,0.00,,,0.00,Wunderground v.1.15,2013-08-13 11:48:00,
2013-08-13 07:53:00,80.6,78.4,30.04,East,101,0.0,0.0,93,0.00,,,0.00,Wunderground v.1.15,2013-08-13 11:53:00,
2013-08-13 07:58:00,80.9,78.4,30.04,East,101,0.0,0.0,92,0.00,,,0.00,Wunderground v.1.15,2013-08-13 11:58:00,
2013-08-13 08:03:00,81.2,78.3,30.04,East,98,0.0,0.0,91,0.00,,,0.00,Wunderground v.1.15,2013-08-13 12:03:00,
2013-08-13 08:08:00,81.5,78.3,30.04,East,94,0.0,2.0,90,0.00,,,0.00,Wunderground v.1.15,2013-08-13 12:08:00,
2013-08-13 08:13:00,82.0,78.4,30.04,East,88,0.0,1.0,89,0.00,,,0.00,Wunderground v.1.15,2013-08-13 12:13:00,
2013-08-13 08:19:00,83.0,78.7,30.05,SE,136,0.0,1.0,87,0.00,,,0.00,Wunderground v.1.15,2013-08-13 12:19:00,
2013-08-13 08:24:00,83.7,78.7,30.05,ESE,110,0.0,1.0,85,0.00,,,0.00,Wunderground v.1.15,2013-08-13 12:24:00,
2013-08-13 08:29:00,84.5,79.1,30.05,SSE,155,0.0,1.0,84,0.00,,,0.00,Wunderground v.1.15,2013-08-13 12:29:00,
2013-08-13 08:34:00,85.5,79.4,30.04,ESE,103,0.0,0.0,82,0.00,,,0.00,Wunderground v.1.15,2013-08-13 12:34:00,
2013-08-13 08:39:00,86.4,79.9,30.04,SSW,210,0.0,1.0,81,0.00,,,0.00,Wunderground v.1.15,2013-08-13 12:39:00,
2013-08-13 08:44:00,87.0,79.3,30.04,SSE,167,0.0,1.0,78,0.00,,,0.00,Wunderground v.1.15,2013-08-13 12:44:00,
2013-08-13 08:49:00,87.2,79.1,30.04,ESE,112,0.0,1.0,77,0.00,,,0.00,Wunderground v.1.15,2013-08-13 12:49:00,
2013-08-13 08:54:00,86.5,78.4,30.04,East,101,0.0,4.0,77,0.00,,,0.00,Wunderground v.1.15,2013-08-13 12:54:00,
2013-08-13 08:59:00,86.1,78.4,30.04,ESE,102,0.0,4.0,78,0.00,,,0.00,Wunderground v.1.15,2013-08-13 12:59:00,
2013-08-13 09:04:00,86.0,78.3,30.04,ESE,111,0.0,1.0,78,0.00,,,0.00,Wunderground v.1.15,2013-08-13 13:04:00,
2013-08-13 09:09:00,86.2,78.1,30.04,ENE,75,0.0,2.0,77,0.00,,,0.00,Wunderground v.1.15,2013-08-13 13:09:00,
2013-08-13 09:14:00,86.5,77.2,30.04,East,88,0.0,6.0,74,0.00,,,0.00,Wunderground v.1.15,2013-08-13 13:14:00,
2013-08-13 09:19:00,86.9,76.8,30.04,East,101,0.0,6.0,72,0.00,,,0.00,Wunderground v.1.15,2013-08-13 13:19:00,
2013-08-13 09:24:00,87.5,77.4,30.04,East,91,0.0,2.0,72,0.00,,,0.00,Wunderground v.1.15,2013-08-13 13:24:00,
2013-08-13 09:29:00,87.7,78.0,30.04,ESE,102,0.0,2.0,73,0.00,,,0.00,Wunderground v.1.15,2013-08-13 13:29:00,
2013-08-13 09:34:00,87.7,77.1,30.04,South,183,0.0,6.0,71,0.00,,,0.00,Wunderground v.1.15,2013-08-13 13:34:00,
2013-08-13 09:39:00,87.9,77.7,30.04,East,98,2.0,6.0,72,0.00,,,0.00,Wunderground v.1.15,2013-08-13 13:39:00,
2013-08-13 09:44:00,88.0,76.5,30.04,ENE,72,0.0,4.0,69,0.00,,,0.00,Wunderground v.1.15,2013-08-13 13:44:00,
2013-08-13 09:49:00,87.9,76.9,30.04,ESE,118,0.0,4.0,70,0.00,,,0.00,Wunderground v.1.15,2013-08-13 13:49:00,
2013-08-13 09:54:00,87.9,77.3,30.05,East,101,0.0,2.0,71,0.00,,,0.00,Wunderground v.1.15,2013-08-13 13:54:00,
2013-08-13 09:59:00,88.0,77.4,30.05,SW,218,0.0,3.0,71,0.00,,,0.00,Wunderground v.1.15,2013-08-13 13:59:00,
2013-08-13 10:04:00,88.1,77.1,30.05,South,172,0.0,3.0,70,0.00,,,0.00,Wunderground v.1.15,2013-08-13 14:04:00,
2013-08-13 10:09:00,87.9,77.3,30.04,SSE,150,0.0,7.0,71,0.00,,,0.00,Wunderground v.1.15,2013-08-13 14:09:00,
2013-08-13 10:14:00,87.6,76.6,30.05,East,89,3.0,8.0,70,0.00,,,0.00,Wunderground v.1.15,2013-08-13 14:14:00,
2013-08-13 10:19:00,87.5,77.4,30.04,South,180,0.0,8.0,72,0.00,,,0.00,Wunderground v.1.15,2013-08-13 14:19:00,
2013-08-13 10:24:00,87.7,77.1,30.05,East,86,3.0,4.0,71,0.00,,,0.00,Wunderground v.1.15,2013-08-13 14:24:00,
2013-08-13 10:29:00,88.0,77.4,30.04,SE,134,2.0,6.0,71,0.00,,,0.00,Wunderground v.1.15,2013-08-13 14:29:00,
2013-08-13 10:34:00,88.5,77.0,30.04,East,92,3.0,5.0,69,0.00,,,0.00,Wunderground v.1.15,2013-08-13 14:34:00,
2013-08-13 10:39:00,88.8,76.9,30.05,SE,129,0.0,5.0,68,0.00,,,0.00,Wunderground v.1.15,2013-08-13 14:39:00,
2013-08-13 10:44:00,89.3,77.3,30.05,ESE,111,0.0,6.0,68,0.00,,,0.00,Wunderground v.1.15,2013-08-13 14:44:00,
2013-08-13 10:49:00,89.5,76.6,30.05,East,89,5.0,6.0,66,0.00,,,0.00,Wunderground v.1.15,2013-08-13 14:49:00,
2013-08-13 10:54:00,89.3,77.3,30.05,ENE,68,3.0,8.0,68,0.00,,,0.00,Wunderground v.1.15,2013-08-13 14:54:00,
2013-08-13 10:59:00,89.1,77.6,30.04,ENE,65,0.0,8.0,69,0.00,,,0.00,Wunderground v.1.15,2013-08-13 14:59:00,
2013-08-13 11:04:00,89.2,77.7,30.04,East,90,0.0,5.0,69,0.00,,,0.00,Wunderground v.1.15,2013-08-13 15:04:00,
2013-08-13 11:09:00,89.5,77.1,30.04,NE,55,0.0,7.0,67,0.00,,,0.00,Wunderground v.1.15,2013-08-13 15:09:00,
2013-08-13 11:14:00,89.9,77.0,30.05,East,86,5.0,8.0,66,0.00,,,0.00,Wunderground v.1.15,2013-08-13 15:14:00,
2013-08-13 11:19:00,89.6,76.7,30.05,East,83,2.0,8.0,66,0.00,,,0.00,Wunderground v.1.15,2013-08-13 15:19:00,
2013-08-13 11:24:00,90.0,76.2,30.04,East,79,4.0,7.0,64,0.00,,,0.00,Wunderground v.1.15,2013-08-13 15:24:00,
2013-08-13 11:29:00,89.9,76.1,30.04,East,91,4.0,7.0,64,0.00,,,0.00,Wunderground v.1.15,2013-08-13 15:29:00,
2013-08-13 11:34:00,90.0,75.7,30.04,ESE,119,6.0,8.0,63,0.00,,,0.00,Wunderground v.1.15,2013-08-13 15:34:00,
2013-08-13 11:39:00,90.2,76.4,30.05,SSW,203,0.0,8.0,64,0.00,,,0.00,Wunderground v.1.15,2013-08-13 15:39:00,
2013-08-13 11:44:00,90.1,76.3,30.04,South,170,0.0,3.0,64,0.00,,,0.00,Wunderground v.1.15,2013-08-13 15:44:00,
2013-08-13 11:49:00,90.5,77.1,30.04,South,181,2.0,4.0,65,0.00,,,0.00,Wunderground v.1.15,2013-08-13 15:49:00,
2013-08-13 11:54:00,90.5,75.7,30.04,SSE,149,1.0,4.0,62,0.00,,,0.00,Wunderground v.1.15,2013-08-13 15:54:00,
2013-08-13 11:59:00,90.4,76.6,30.04,ENE,58,1.0,5.0,64,0.00,,,0.00,Wunderground v.1.15,2013-08-13 15:59:00,
2013-08-13 12:04:00,90.1,76.3,30.04,East,101,0.0,7.0,64,0.00,,,0.00,Wunderground v.1.15,2013-08-13 16:04:00,
2013-08-13 12:09:00,90.5,76.2,30.04,SE,128,7.0,7.0,63,0.00,,,0.00,Wunderground v.1.15,2013-08-13 16:09:00,
2013-08-13 12:14:00,90.8,75.5,30.04,SE,134,2.0,6.0,61,0.00,,,0.00,Wunderground v.1.15,2013-08-13 16:14:00,
2013-08-13 12:19:00,91.3,76.9,30.04,ESE,118,2.0,6.0,63,0.00,,,0.00,Wunderground v.1.15,2013-08-13 16:19:00,
2013-08-13 12:24:00,91.8,76.4,30.04,SSE,149,1.0,7.0,61,0.00,,,0.00,Wunderground v.1.15,2013-08-13 16:24:00,
2013-08-13 12:29:00,92.0,76.6,30.04,SSE,164,1.0,7.0,61,0.00,,,0.00,Wunderground v.1.15,2013-08-13 16:29:00,
2013-08-13 12:34:00,92.0,75.6,30.04,ESE,118,2.0,9.0,59,0.00,,,0.00,Wunderground v.1.15,2013-08-13 16:34:00,
2013-08-13 12:39:00,91.6,76.2,30.04,East,84,0.0,9.0,61,0.00,,,0.00,Wunderground v.1.15,2013-08-13 16:39:00,
2013-08-13 12:44:00,91.7,74.3,30.04,SSW,204,2.0,8.0,57,0.00,,,0.00,Wunderground v.1.15,2013-08-13 16:44:00,
2013-08-13 12:49:00,91.8,75.4,30.03,SE,126,0.0,8.0,59,0.00,,,0.00,Wunderground v.1.15,2013-08-13 16:49:00,
2013-08-13 12:54:00,91.9,75.0,30.03,ESE,114,2.0,6.0,58,0.00,,,0.00,Wunderground v.1.15,2013-08-13 16:54:00,
2013-08-13 12:59:00,91.9,76.5,30.03,East,84,0.0,6.0,61,0.00,,,0.00,Wunderground v.1.15,2013-08-13 16:59:00,
2013-08-13 13:04:00,91.8,76.4,30.03,ESE,118,1.0,11.0,61,0.00,,,0.00,Wunderground v.1.15,2013-08-13 17:04:00,
2013-08-13 13:12:00,92.0,75.6,30.03,ENE,72,7.0,7.0,59,0.00,,,0.00,Wunderground v.1.15,2013-08-13 17:12:00,
2013-08-13 13:17:00,92.2,75.8,30.03,ENE,78,8.0,8.0,59,0.00,,,0.00,Wunderground v.1.15,2013-08-13 17:17:00,
2013-08-13 13:22:00,92.0,74.1,30.03,South,180,0.0,4.0,56,0.00,,,0.00,Wunderground v.1.15,2013-08-13 17:22:00,
2013-08-13 13:27:00,92.1,75.7,30.03,East,94,2.0,9.0,59,0.00,,,0.00,Wunderground v.1.15,2013-08-13 17:27:00,
2013-08-13 13:32:00,91.8,75.4,30.02,East,80,1.0,10.0,59,0.00,,,0.00,Wunderground v.1.15,2013-08-13 17:32:00,
2013-08-13 13:37:00,92.0,75.1,30.02,ESE,120,6.0,10.0,58,0.00,,,0.00,Wunderground v.1.15,2013-08-13 17:37:00,
2013-08-13 13:42:00,91.5,75.1,30.02,East,79,0.0,5.0,59,0.00,,,0.00,Wunderground v.1.15,2013-08-13 17:42:00,
2013-08-13 13:47:00,92.0,75.6,30.03,East,91,1.0,5.0,59,0.00,,,0.00,Wunderground v.1.15,2013-08-13 17:47:00,
2013-08-13 13:52:00,92.0,75.6,30.02,SE,128,3.0,8.0,59,0.00,,,0.00,Wunderground v.1.15,2013-08-13 17:52:00,
2013-08-13 13:57:00,91.6,74.7,30.02,ESE,121,4.0,8.0,58,0.00,,,0.00,Wunderground v.1.15,2013-08-13 17:57:00,
2013-08-13 14:02:00,91.8,75.4,30.02,ESE,115,4.0,6.0,59,0.00,,,0.00,Wunderground v.1.15,2013-08-13 18:02:00,
2013-08-13 14:07:00,91.9,74.5,30.02,SSW,210,1.0,6.0,57,0.00,,,0.00,Wunderground v.1.15,2013-08-13 18:07:00,
2013-08-13 14:12:00,92.1,76.2,30.02,ESE,102,6.0,6.0,60,0.00,,,0.00,Wunderground v.1.15,2013-08-13 18:12:00,
2013-08-13 14:17:00,91.9,76.0,30.02,ENE,61,0.0,10.0,60,0.00,,,0.00,Wunderground v.1.15,2013-08-13 18:17:00,
2013-08-13 14:22:00,92.0,76.1,30.02,ESE,111,3.0,7.0,60,0.00,,,0.00,Wunderground v.1.15,2013-08-13 18:22:00,
2013-08-13 14:27:00,91.6,75.7,30.02,ESE,116,2.0,10.0,60,0.00,,,0.00,Wunderground v.1.15,2013-08-13 18:27:00,
2013-08-13 14:32:00,91.8,75.4,30.02,East,82,5.0,9.0,59,0.00,,,0.00,Wunderground v.1.15,2013-08-13 18:32:00,
2013-08-13 14:37:00,91.9,75.5,30.02,ESE,113,0.0,9.0,59,0.00,,,0.00,Wunderground v.1.15,2013-08-13 18:37:00,
2013-08-13 14:42:00,92.1,74.1,30.02,SSE,162,0.0,7.0,56,0.00,,,0.00,Wunderground v.1.15,2013-08-13 18:42:00,
2013-08-13 14:47:00,92.3,74.9,30.01,NE,56,0.0,7.0,57,0.00,,,0.00,Wunderground v.1.15,2013-08-13 18:47:00,
2013-08-13 14:52:00,92.4,75.0,30.01,ENE,75,2.0,9.0,57,0.00,,,0.00,Wunderground v.1.15,2013-08-13 18:52:00,
2013-08-13 14:57:00,92.5,75.0,30.01,ESE,123,2.0,9.0,57,0.00,,,0.00,Wunderground v.1.15,2013-08-13 18:57:00,
2013-08-13 15:02:00,91.9,75.0,30.01,East,83,6.0,6.0,58,0.00,,,0.00,Wunderground v.1.15,2013-08-13 19:02:00,
2013-08-13 15:07:00,92.1,74.7,30.01,East,95,1.0,7.0,57,0.00,,,0.00,Wunderground v.1.15,2013-08-13 19:07:00,
2013-08-13 15:12:00,92.3,73.8,30.01,ESE,120,1.0,5.0,55,0.00,,,0.00,Wunderground v.1.15,2013-08-13 19:12:00,
2013-08-13 15:17:00,92.2,74.8,30.00,East,98,1.0,7.0,57,0.00,,,0.00,Wunderground v.1.15,2013-08-13 19:17:00,
2013-08-13 15:22:00,92.0,75.6,30.00,SE,139,0.0,5.0,59,0.00,,,0.00,Wunderground v.1.15,2013-08-13 19:22:00,
2013-08-13 15:27:00,92.2,75.8,30.00,NE,44,2.0,6.0,59,0.00,,,0.00,Wunderground v.1.15,2013-08-13 19:27:00,
2013-08-13 15:32:00,92.0,76.6,30.00,NNW,341,0.0,7.0,61,0.00,,,0.00,Wunderground v.1.15,2013-08-13 19:32:00,
2013-08-13 15:37:00,92.0,75.6,30.00,East,94,3.0,8.0,59,0.00,,,0.00,Wunderground v.1.15,2013-08-13 19:37:00,
2013-08-13 15:42:00,91.9,75.5,30.00,NNE,15,5.0,9.0,59,0.00,,,0.00,Wunderground v.1.15,2013-08-13 19:42:00,
2013-08-13 15:47:00,91.8,76.4,30.00,East,97,2.0,9.0,61,0.00,,,0.00,Wunderground v.1.15,2013-08-13 19:47:00,
2013-08-13 15:52:00,91.6,75.7,30.00,ESE,105,3.0,6.0,60,0.00,,,0.00,Wunderground v.1.15,2013-08-13 19:52:00,
2013-08-13 15:57:00,91.4,75.6,30.00,East,84,2.0,9.0,60,0.00,,,0.00,Wunderground v.1.15,2013-08-13 19:57:00,
2013-08-13 16:02:00,90.9,75.6,30.00,ESE,102,1.0,6.0,61,0.00,,,0.00,Wunderground v.1.15,2013-08-13 20:02:00,
2013-08-13 16:07:00,91.3,75.0,30.00,SE,132,7.0,9.0,59,0.00,,,0.00,Wunderground v.1.15,2013-08-13 20:07:00,
2013-08-13 16:12:00,91.2,75.4,29.99,East,97,2.0,4.0,60,0.00,,,0.00,Wunderground v.1.15,2013-08-13 20:12:00,
2013-08-13 16:17:00,91.3,76.0,30.00,ENE,68,3.0,7.0,61,0.00,,,0.00,Wunderground v.1.15,2013-08-13 20:17:00,
2013-08-13 16:22:00,91.1,76.3,29.99,ENE,72,5.0,5.0,62,0.00,,,0.00,Wunderground v.1.15,2013-08-13 20:22:00,
2013-08-13 16:27:00,90.5,75.2,29.99,ESE,104,0.0,10.0,61,0.00,,,0.00,Wunderground v.1.15,2013-08-13 20:27:00,
2013-08-13 16:32:00,90.5,76.2,29.99,ESE,114,4.0,5.0,63,0.00,,,0.00,Wunderground v.1.15,2013-08-13 20:32:00,
2013-08-13 16:37:00,90.9,75.6,29.99,East,89,0.0,9.0,61,0.00,,,0.00,Wunderground v.1.15,2013-08-13 20:37:00,
2013-08-13 16:42:00,90.9,75.6,29.99,East,93,0.0,5.0,61,0.00,,,0.00,Wunderground v.1.15,2013-08-13 20:42:00,
2013-08-13 16:47:00,91.2,75.4,29.99,East,82,2.0,5.0,60,0.00,,,0.00,Wunderground v.1.15,2013-08-13 20:47:00,
2013-08-13 16:52:00,91.4,75.6,29.98,ESE,117,0.0,6.0,60,0.00,,,0.00,Wunderground v.1.15,2013-08-13 20:52:00,
2013-08-13 16:57:00,91.6,76.2,29.98,NE,46,6.0,7.0,61,0.00,,,0.00,Wunderground v.1.15,2013-08-13 20:57:00,
2013-08-13 17:02:00,91.6,75.2,29.98,SE,124,6.0,6.0,59,0.00,,,0.00,Wunderground v.1.15,2013-08-13 21:02:00,
2013-08-13 17:07:00,91.8,75.4,29.98,NW,319,0.0,7.0,59,0.00,,,0.00,Wunderground v.1.15,2013-08-13 21:07:00,
2013-08-13 17:12:00,91.8,74.9,29.98,ESE,105,0.0,5.0,58,0.00,,,0.00,Wunderground v.1.15,2013-08-13 21:12:00,
2013-08-13 17:17:00,91.0,75.2,29.98,ENE,78,5.0,6.0,60,0.00,,,0.00,Wunderground v.1.15,2013-08-13 21:17:00,
2013-08-13 17:23:00,90.8,75.5,29.98,SSE,155,0.0,8.0,61,0.00,,,0.00,Wunderground v.1.15,2013-08-13 21:23:00,
2013-08-13 17:28:00,91.3,75.0,29.98,SW,226,0.0,8.0,59,0.00,,,0.00,Wunderground v.1.15,2013-08-13 21:28:00,
2013-08-13 17:33:00,91.4,76.1,29.98,ENE,67,0.0,5.0,61,0.00,,,0.00,Wunderground v.1.15,2013-08-13 21:33:00,
2013-08-13 17:37:00,91.2,74.4,29.98,ESE,102,0.0,6.0,58,0.00,,,0.00,Wunderground v.1.15,2013-08-13 21:37:00,
2013-08-13 17:43:00,91.0,74.2,29.98,ENE,74,0.0,12.0,58,0.00,,,0.00,Wunderground v.1.15,2013-08-13 21:43:00,
2013-08-13 17:48:00,91.0,75.2,29.98,ENE,65,3.0,12.0,60,0.00,,,0.00,Wunderground v.1.15,2013-08-13 21:48:00,
2013-08-13 17:53:00,90.6,75.3,29.98,East,90,0.0,6.0,61,0.00,,,0.00,Wunderground v.1.15,2013-08-13 21:53:00,
2013-08-13 17:58:00,90.5,75.7,29.98,South,172,0.0,7.0,62,0.00,,,0.00,Wunderground v.1.15,2013-08-13 21:58:00,
2013-08-13 18:03:00,90.5,75.7,29.98,SSE,159,0.0,3.0,62,0.00,,,0.00,Wunderground v.1.15,2013-08-13 22:03:00,
2013-08-13 18:08:00,90.3,75.5,29.98,ESE,121,1.0,5.0,62,0.00,,,0.00,Wunderground v.1.15,2013-08-13 22:08:00,
2013-08-13 18:13:00,90.0,76.2,29.99,SE,127,0.0,7.0,64,0.00,,,0.00,Wunderground v.1.15,2013-08-13 22:13:00,
2013-08-13 18:18:00,90.0,77.1,29.99,East,95,1.0,7.0,66,0.00,,,0.00,Wunderground v.1.15,2013-08-13 22:18:00,
2013-08-13 18:23:00,90.3,77.4,29.99,East,98,0.0,3.0,66,0.00,,,0.00,Wunderground v.1.15,2013-08-13 22:23:00,
2013-08-13 18:28:00,90.4,77.5,29.99,South,179,0.0,6.0,66,0.00,,,0.00,Wunderground v.1.15,2013-08-13 22:28:00,
2013-08-13 18:33:00,90.8,76.9,29.99,SW,231,0.0,2.0,64,0.00,,,0.00,Wunderground v.1.15,2013-08-13 22:33:00,
2013-08-13 18:38:00,90.9,77.5,29.98,SW,224,0.0,5.0,65,0.00,,,0.00,Wunderground v.1.15,2013-08-13 22:38:00,
2013-08-13 18:43:00,90.7,76.4,29.98,ESE,111,0.0,7.0,63,0.00,,,0.00,Wunderground v.1.15,2013-08-13 22:43:00,
2013-08-13 18:48:00,90.3,76.5,29.99,East,91,1.0,7.0,64,0.00,,,0.00,Wunderground v.1.15,2013-08-13 22:48:00,
2013-08-13 18:53:00,89.9,76.6,29.99,North,10,2.0,4.0,65,0.00,,,0.00,Wunderground v.1.15,2013-08-13 22:53:00,
2013-08-13 18:59:00,90.0,77.1,29.99,East,83,6.0,6.0,66,0.00,,,0.00,Wunderground v.1.15,2013-08-13 22:59:00,
2013-08-13 19:04:00,89.8,76.0,29.98,SSW,196,2.0,5.0,64,0.00,,,0.00,Wunderground v.1.15,2013-08-13 23:04:00,
2013-08-13 19:09:00,89.6,75.8,29.98,SSE,165,1.0,5.0,64,0.00,,,0.00,Wunderground v.1.15,2013-08-13 23:09:00,
2013-08-13 19:14:00,89.1,75.8,29.98,East,93,0.0,4.0,65,0.00,,,0.00,Wunderground v.1.15,2013-08-13 23:14:00,
2013-08-13 19:19:00,88.9,75.6,29.98,NNW,330,0.0,4.0,65,0.00,,,0.00,Wunderground v.1.15,2013-08-13 23:19:00,
2013-08-13 19:24:00,88.4,75.1,29.98,South,170,0.0,6.0,65,0.00,,,0.00,Wunderground v.1.15,2013-08-13 23:24:00,
2013-08-13 19:29:00,88.1,75.3,29.98,SE,124,0.0,6.0,66,0.00,,,0.00,Wunderground v.1.15,2013-08-13 23:29:00,
2013-08-13 19:34:00,87.0,74.3,29.98,East,90,0.0,7.0,66,0.00,,,0.00,Wunderground v.1.15,2013-08-13 23:34:00,
2013-08-13 19:39:00,86.3,74.5,29.98,South,179,1.0,7.0,68,0.00,,,0.00,Wunderground v.1.15,2013-08-13 23:39:00,
2013-08-13 19:44:00,85.7,74.4,29.98,East,98,1.0,7.0,69,0.00,,,0.00,Wunderground v.1.15,2013-08-13 23:44:00,
2013-08-13 19:49:00,85.3,74.4,29.99,SSW,196,3.0,7.0,70,0.00,,,0.00,Wunderground v.1.15,2013-08-13 23:49:00,
2013-08-13 19:54:00,85.0,74.5,29.99,ESE,114,0.0,4.0,71,0.00,,,0.00,Wunderground v.1.15,2013-08-13 23:54:00,
2013-08-13 19:59:00,84.7,74.3,29.99,ESE,111,0.0,5.0,71,0.00,,,0.00,Wunderground v.1.15,2013-08-13 23:59:00,
2013-08-13 20:04:00,84.5,74.5,30.00,ESE,108,2.0,2.0,72,0.00,,,0.00,Wunderground v.1.15,2013-08-14 00:04:00,
2013-08-13 20:09:00,84.4,74.8,30.00,SE,138,0.0,4.0,73,0.00,,,0.00,Wunderground v.1.15,2013-08-14 00:09:00,
2013-08-13 20:14:00,84.2,75.0,30.00,ESE,118,2.0,2.0,74,0.00,,,0.00,Wunderground v.1.15,2013-08-14 00:14:00,
2013-08-13 20:19:00,84.1,75.3,30.00,ESE,111,0.0,3.0,75,0.00,,,0.00,Wunderground v.1.15,2013-08-14 00:19:00,
2013-08-13 20:24:00,83.9,75.1,30.00,SSW,195,0.0,2.0,75,0.00,,,0.00,Wunderground v.1.15,2013-08-14 00:24:00,
2013-08-13 20:29:00,83.8,75.4,30.01,East,94,1.0,2.0,76,0.00,,,0.00,Wunderground v.1.15,2013-08-14 00:29:00,
2013-08-13 20:34:00,83.7,75.3,30.01,SSE,151,1.0,4.0,76,0.00,,,0.00,Wunderground v.1.15,2013-08-14 00:34:00,
2013-08-13 20:39:00,83.6,75.2,30.01,SE,124,3.0,4.0,76,0.00,,,0.00,Wunderground v.1.15,2013-08-14 00:39:00,
2013-08-13 20:44:00,83.6,75.2,30.02,ENE,73,0.0,2.0,76,0.00,,,0.00,Wunderground v.1.15,2013-08-14 00:44:00,
2013-08-13 20:49:00,83.4,75.0,30.02,SE,127,0.0,4.0,76,0.00,,,0.00,Wunderground v.1.15,2013-08-14 00:49:00,
2013-08-13 20:54:00,83.4,75.0,30.02,West,267,0.0,6.0,76,0.00,,,0.00,Wunderground v.1.15,2013-08-14 00:54:00,
2013-08-13 20:59:00,83.4,75.4,30.02,ESE,112,0.0,6.0,77,0.00,,,0.00,Wunderground v.1.15,2013-08-14 00:59:00,
2013-08-13 21:04:00,83.4,75.4,30.03,SE,132,1.0,2.0,77,0.00,,,0.00,Wunderground v.1.15,2013-08-14 01:04:00,
2013-08-13 21:09:00,83.3,75.7,30.03,East,101,0.0,5.0,78,0.00,,,0.00,Wunderground v.1.15,2013-08-14 01:09:00,
2013-08-13 21:14:00,83.2,75.6,30.03,ESE,114,0.0,1.0,78,0.00,,,0.00,Wunderground v.1.15,2013-08-14 01:14:00,
2013-08-13 21:19:00,83.1,75.5,30.03,East,101,2.0,5.0,78,0.00,,,0.00,Wunderground v.1.15,2013-08-14 01:19:00,
2013-08-13 21:24:00,83.1,75.5,30.03,ESE,118,0.0,4.0,78,0.00,,,0.00,Wunderground v.1.15,2013-08-14 01:24:00,
2013-08-13 21:29:00,83.1,75.9,30.03,SSE,152,0.0,4.0,79,0.00,,,0.00,Wunderground v.1.15,2013-08-14 01:29:00,
2013-08-13 21:34:00,83.0,75.8,30.03,East,91,1.0,4.0,79,0.00,,,0.00,Wunderground v.1.15,2013-08-14 01:34:00,
2013-08-13 21:39:00,83.0,75.8,30.03,East,96,0.0,4.0,79,0.00,,,0.00,Wunderground v.1.15,2013-08-14 01:39:00,
2013-08-13 21:44:00,82.9,76.1,30.03,East,91,1.0,3.0,80,0.00,,,0.00,Wunderground v.1.15,2013-08-14 01:44:00,
2013-08-13 21:49:00,82.8,76.0,30.03,SE,141,0.0,3.0,80,0.00,,,0.00,Wunderground v.1.15,2013-08-14 01:49:00,
2013-08-13 21:54:00,82.8,76.0,30.03,ESE,115,0.0,1.0,80,0.00,,,0.00,Wunderground v.1.15,2013-08-14 01:54:00,
2013-08-13 21:59:00,82.7,75.9,30.04,East,101,0.0,3.0,80,0.00,,,0.00,Wunderground v.1.15,2013-08-14 01:59:00,
2013-08-13 22:04:00,82.6,75.8,30.04,East,82,0.0,1.0,80,0.00,,,0.00,Wunderground v.1.15,2013-08-14 02:04:00,
2013-08-13 22:09:00,82.5,76.1,30.04,ESE,117,0.0,2.0,81,0.00,,,0.00,Wunderground v.1.15,2013-08-14 02:09:00,
2013-08-13 22:14:00,82.5,76.1,30.04,East,91,0.0,1.0,81,0.00,,,0.00,Wunderground v.1.15,2013-08-14 02:14:00,
2013-08-13 22:19:00,82.5,76.1,30.04,SE,139,0.0,1.0,81,0.00,,,0.00,Wunderground v.1.15,2013-08-14 02:19:00,
2013-08-13 22:24:00,82.4,76.0,30.04,ESE,105,0.0,1.0,81,0.00,,,0.00,Wunderground v.1.15,2013-08-14 02:24:00,
2013-08-13 22:29:00,82.4,76.0,30.04,ENE,72,1.0,1.0,81,0.00,,,0.00,Wunderground v.1.15,2013-08-14 02:29:00,
2013-08-13 22:34:00,82.4,76.0,30.04,East,96,0.0,2.0,81,0.00,,,0.00,Wunderground v.1.15,2013-08-14 02:34:00,
2013-08-13 22:39:00,82.5,76.1,30.04,SE,129,0.0,3.0,81,0.00,,,0.00,Wunderground v.1.15,2013-08-14 02:39:00,
2013-08-13 22:44:00,82.4,76.0,30.03,SE,124,0.0,2.0,81,0.00,,,0.00,Wunderground v.1.15,2013-08-14 02:44:00,
2013-08-13 22:49:00,82.2,75.8,30.03,SE,136,0.0,2.0,81,0.00,,,0.00,Wunderground v.1.15,2013-08-14 02:49:00,
2013-08-13 22:54:00,82.1,76.1,30.04,SE,124,0.0,1.0,82,0.00,,,0.00,Wunderground v.1.15,2013-08-14 02:54:00,
2013-08-13 22:59:00,82.0,76.0,30.04,South,179,0.0,1.0,82,0.00,,,0.00,Wunderground v.1.15,2013-08-14 02:59:00,
2013-08-13 23:04:00,81.9,75.9,30.04,ESE,108,0.0,1.0,82,0.00,,,0.00,Wunderground v.1.15,2013-08-14 03:04:00,
2013-08-13 23:09:00,81.9,75.9,30.04,ESE,112,0.0,1.0,82,0.00,,,0.00,Wunderground v.1.15,2013-08-14 03:09:00,
2013-08-13 23:14:00,81.8,76.1,30.04,ESE,112,0.0,0.0,83,0.00,,,0.00,Wunderground v.1.15,2013-08-14 03:14:00,
2013-08-13 23:19:00,81.7,75.7,30.04,ESE,111,0.0,0.0,82,0.00,,,0.00,Wunderground v.1.15,2013-08-14 03:19:00,
2013-08-13 23:24:00,81.5,75.8,30.04,ESE,112,0.0,0.0,83,0.00,,,0.00,Wunderground v.1.15,2013-08-14 03:24:00,
2013-08-13 23:29:00,81.4,75.7,30.04,ESE,111,0.0,0.0,83,0.00,,,0.00,Wunderground v.1.15,2013-08-14 03:29:00,
2013-08-13 23:34:00,81.2,75.9,30.04,ESE,112,0.0,0.0,84,0.00,,,0.00,Wunderground v.1.15,2013-08-14 03:34:00,
2013-08-13 23:39:00,81.2,75.9,30.04,ESE,112,0.0,0.0,84,0.00,,,0.00,Wunderground v.1.15,2013-08-14 03:39:00,
2013-08-13 23:44:00,81.2,75.9,30.04,ESE,111,0.0,0.0,84,0.00,,,0.00,Wunderground v.1.15,2013-08-14 03:44:00,
2013-08-13 23:49:00,81.3,76.0,30.04,ESE,111,0.0,0.0,84,0.00,,,0.00,Wunderground v.1.15,2013-08-14 03:49:00,
2013-08-13 23:54:00,81.3,76.0,30.05,ESE,111,0.0,0.0,84,0.00,,,0.00,Wunderground v.1.15,2013-08-14 03:54:00,
2013-08-13 23:59:00,81.2,75.9,30.04,ESE,111,0.0,0.0,84,0.00,,,0.00,Wunderground v.1.15,2013-08-14 03:59:00,